Time;durP1;ratioP1;P1;durP2;ratioP2;P2;SDS_P1;SDS_P2;PMS_P1;PMS_P2;Temp;Humidity;BMP_temperature;BMP_pressure;BME280_temperature;BME280_humidity;BME280_pressure;Samples;Min_cycle;Max_cycle;Signal;HPM_P1;HPM_P2
2023/03/04 00:02:02;;;;;;;43.75;25.80;;;;;;;;;;5105210;28;20542;-69
2023/03/04 00:04:28;;;;;;;46.95;26.67;;;;;;;;;;5105295;28;20196;-69
2023/03/04 00:06:54;;;;;;;41.78;26.13;;;;;;;;;;5105563;28;20196;-69
2023/03/04 00:09:21;;;;;;;49.20;27.63;;;;;;;;;;5105201;28;20434;-69
2023/03/04 00:11:48;;;;;;;45.65;26.40;;;;;;;;;;5105457;28;20423;-69
2023/03/04 00:14:15;;;;;;;49.65;27.05;;;;;;;;;;5105323;28;20203;-69
2023/03/04 00:16:41;;;;;;;48.42;28.02;;;;;;;;;;5105155;28;20200;-69
2023/03/04 00:19:07;;;;;;;48.38;27.98;;;;;;;;;;5104785;28;20217;-69
2023/03/04 00:21:33;;;;;;;43.17;26.85;;;;;;;;;;5105178;28;20535;-69
2023/03/04 00:24:00;;;;;;;44.20;26.10;;;;;;;;;;5104872;28;20502;-68
2023/03/04 00:26:26;;;;;;;45.67;27.50;;;;;;;;;;5104752;28;20200;-69
2023/03/04 00:28:53;;;;;;;45.65;26.88;;;;;;;;;;5104673;28;20223;-69
2023/03/04 00:31:20;;;;;;;45.60;27.08;;;;;;;;;;5104735;28;20196;-69
2023/03/04 00:33:46;;;;;;;45.58;26.67;;;;;;;;;;5104591;28;20204;-69
2023/03/04 00:36:12;;;;;;;43.25;24.75;;;;;;;;;;5104892;28;20199;-69
2023/03/04 00:38:38;;;;;;;45.80;26.60;;;;;;;;;;5104931;28;20196;-69
2023/03/04 00:41:05;;;;;;;42.78;25.83;;;;;;;;;;5104495;28;20228;-69
2023/03/04 00:43:31;;;;;;;43.38;24.40;;;;;;;;;;5104550;28;20210;-69
2023/03/04 00:45:59;;;;;;;40.83;24.83;;;;;;;;;;5104486;28;20204;-69
2023/03/04 00:48:25;;;;;;;44.03;25.45;;;;;;;;;;5104462;28;20230;-69
2023/03/04 00:50:52;;;;;;;44.05;24.95;;;;;;;;;;5104697;28;20203;-69
2023/03/04 00:53:19;;;;;;;37.60;22.30;;;;;;;;;;5104394;28;20364;-69
2023/03/04 00:55:45;;;;;;;40.72;24.85;;;;;;;;;;5104423;28;20396;-69
2023/03/04 00:58:11;;;;;;;44.30;24.50;;;;;;;;;;5104048;28;20406;-69
2023/03/04 01:00:37;;;;;;;48.05;27.23;;;;;;;;;;5104121;28;20503;-69
2023/03/04 01:03:05;;;;;;;38.35;23.80;;;;;;;;;;5104451;28;20295;-69
2023/03/04 01:05:33;;;;;;;45.90;26.60;;;;;;;;;;5104291;28;20200;-69
2023/03/04 01:07:59;;;;;;;49.35;26.80;;;;;;;;;;5104091;28;20233;-69
2023/03/04 01:10:25;;;;;;;44.00;24.60;;;;;;;;;;5103896;28;20203;-69
2023/03/04 01:12:51;;;;;;;48.60;24.95;;;;;;;;;;5104171;28;20192;-69
2023/03/04 01:15:18;;;;;;;48.05;26.05;;;;;;;;;;5104276;28;20196;-69
2023/03/04 01:17:44;;;;;;;43.08;24.17;;;;;;;;;;5103809;28;20200;-69
2023/03/04 01:20:12;;;;;;;49.13;25.98;;;;;;;;;;5104136;28;20210;-69
2023/03/04 01:22:39;;;;;;;44.33;25.05;;;;;;;;;;5103657;28;20281;-69
2023/03/04 01:25:05;;;;;;;44.05;25.48;;;;;;;;;;5104044;28;20234;-69
2023/03/04 01:27:32;;;;;;;40.97;24.25;;;;;;;;;;5103378;28;20466;-69
2023/03/04 01:29:58;;;;;;;44.85;25.38;;;;;;;;;;5103408;28;20237;-69
2023/03/04 01:32:24;;;;;;;50.50;26.48;;;;;;;;;;5103048;28;20265;-69
2023/03/04 01:34:50;;;;;;;46.70;25.48;;;;;;;;;;5103659;28;20196;-69
2023/03/04 01:37:18;;;;;;;45.72;25.42;;;;;;;;;;5103430;28;20241;-69
2023/03/04 01:39:44;;;;;;;46.20;26.10;;;;;;;;;;5103417;28;20204;-69
2023/03/04 01:42:14;;;;;;;43.58;24.83;;;;;;;;;;5103257;28;20245;-69
2023/03/04 01:44:41;;;;;;;49.70;26.48;;;;;;;;;;5103303;28;20480;-69
2023/03/04 01:47:09;;;;;;;49.55;26.20;;;;;;;;;;5103283;28;20233;-69
2023/03/04 01:49:35;;;;;;;46.17;25.60;;;;;;;;;;5103182;28;20218;-69
2023/03/04 01:52:01;;;;;;;49.92;25.92;;;;;;;;;;5103155;28;20196;-68
2023/03/04 01:54:29;;;;;;;45.55;25.88;;;;;;;;;;5103202;28;20208;-68
2023/03/04 01:56:55;;;;;;;43.97;25.73;;;;;;;;;;5102890;28;20233;-69
2023/03/04 01:59:22;;;;;;;50.25;27.23;;;;;;;;;;5103168;28;20200;-69
2023/03/04 02:01:49;;;;;;;47.15;26.05;;;;;;;;;;5103298;28;20211;-69
2023/03/04 02:04:16;;;;;;;49.63;27.02;;;;;;;;;;5103042;28;20196;-69
2023/03/04 02:06:43;;;;;;;51.13;25.50;;;;;;;;;;5102949;28;20530;-68
2023/03/04 02:09:09;;;;;;;47.08;27.10;;;;;;;;;;5102754;28;20226;-69
2023/03/04 02:11:38;;;;;;;45.47;26.70;;;;;;;;;;5103319;28;20487;-69
2023/03/04 02:14:04;;;;;;;49.03;27.10;;;;;;;;;;5103091;28;20204;-69
2023/03/04 02:16:31;;;;;;;46.17;26.30;;;;;;;;;;5102729;28;20525;-69
2023/03/04 02:18:57;;;;;;;49.72;27.95;;;;;;;;;;5102518;28;20204;-69
2023/03/04 02:21:24;;;;;;;46.42;26.67;;;;;;;;;;5102754;28;20200;-68
2023/03/04 02:23:55;;;;;;;52.85;28.30;;;;;;;;;;5102835;28;20340;-68
2023/03/04 02:26:23;;;;;;;45.67;25.38;;;;;;;;;;5103100;28;20199;-68
2023/03/04 02:28:50;;;;;;;45.30;26.80;;;;;;;;;;5102240;28;20253;-68
2023/03/04 02:31:21;;;;;;;43.88;26.08;;;;;;;;;;5102710;28;20241;-69
2023/03/04 02:33:47;;;;;;;43.38;24.40;;;;;;;;;;5102763;28;20199;-68
2023/03/04 02:36:14;;;;;;;47.70;26.38;;;;;;;;;;5102312;28;20192;-69
2023/03/04 02:38:40;;;;;;;44.38;25.42;;;;;;;;;;5102167;28;20192;-69
2023/03/04 02:41:11;;;;;;;45.72;27.02;;;;;;;;;;5102637;28;20196;-69
2023/03/04 02:43:39;;;;;;;44.00;24.35;;;;;;;;;;5101404;28;20268;-68
2023/03/04 02:46:05;;;;;;;44.78;26.30;;;;;;;;;;5102352;28;20196;-69
2023/03/04 02:48:31;;;;;;;44.90;25.75;;;;;;;;;;5102484;28;20499;-69
2023/03/04 02:50:58;;;;;;;44.08;25.73;;;;;;;;;;5102583;28;20196;-69
2023/03/04 02:53:24;;;;;;;45.03;25.35;;;;;;;;;;5102327;28;20191;-69
2023/03/04 02:55:51;;;;;;;43.65;25.00;;;;;;;;;;5102304;28;20196;-69
2023/03/04 02:58:17;;;;;;;47.63;24.48;;;;;;;;;;5102192;28;20196;-69
2023/03/04 03:00:45;;;;;;;49.58;25.75;;;;;;;;;;5102264;28;20196;-69
2023/03/04 03:03:11;;;;;;;43.55;25.33;;;;;;;;;;5102439;28;20538;-69
2023/03/04 03:05:37;;;;;;;48.45;26.08;;;;;;;;;;5102388;28;20507;-68
2023/03/04 03:08:04;;;;;;;45.72;24.95;;;;;;;;;;5101994;28;20218;-68
2023/03/04 03:10:31;;;;;;;44.17;24.27;;;;;;;;;;5102106;28;20503;-69
2023/03/04 03:12:57;;;;;;;50.30;26.70;;;;;;;;;;5102381;28;20421;-68
2023/03/04 03:15:23;;;;;;;45.47;25.10;;;;;;;;;;5102141;28;20419;-68
2023/03/04 03:17:51;;;;;;;47.92;26.02;;;;;;;;;;5102233;28;20196;-69
2023/03/04 03:20:18;;;;;;;45.92;25.80;;;;;;;;;;5102333;28;20503;-69
2023/03/04 03:22:44;;;;;;;47.28;26.05;;;;;;;;;;5102015;28;20555;-68
2023/03/04 03:25:11;;;;;;;43.60;24.85;;;;;;;;;;5102054;28;20508;-69
2023/03/04 03:27:37;;;;;;;43.00;25.55;;;;;;;;;;5101635;28;20216;-68
2023/03/04 03:30:04;;;;;;;42.50;23.85;;;;;;;;;;5102352;28;20241;-69
2023/03/04 03:32:30;;;;;;;42.45;23.63;;;;;;;;;;5102399;28;20257;-68
2023/03/04 03:34:58;;;;;;;45.47;25.20;;;;;;;;;;5102058;28;20233;-68
2023/03/04 03:37:24;;;;;;;45.63;25.25;;;;;;;;;;5101800;28;20218;-69
2023/03/04 03:39:50;;;;;;;44.85;25.00;;;;;;;;;;5102227;28;20249;-68
2023/03/04 03:42:17;;;;;;;47.17;24.73;;;;;;;;;;5101799;28;20215;-69
2023/03/04 03:44:43;;;;;;;41.70;24.48;;;;;;;;;;5102122;28;20507;-68
2023/03/04 03:47:09;;;;;;;45.17;24.38;;;;;;;;;;5101798;28;20427;-69
2023/03/04 03:49:36;;;;;;;43.35;24.73;;;;;;;;;;5101911;28;20496;-68
2023/03/04 03:52:03;;;;;;;41.95;24.73;;;;;;;;;;5102018;28;20500;-68
2023/03/04 03:54:30;;;;;;;41.45;24.65;;;;;;;;;;5102696;28;20196;-68
2023/03/04 03:56:56;;;;;;;45.42;24.33;;;;;;;;;;5105207;28;20249;-68
2023/03/04 03:59:23;;;;;;;46.33;24.95;;;;;;;;;;5105674;28;20200;-69
2023/03/04 04:01:49;;;;;;;43.53;25.63;;;;;;;;;;5105583;28;20195;-69
2023/03/04 04:04:16;;;;;;;42.65;24.60;;;;;;;;;;5105406;28;20219;-69
2023/03/04 04:06:42;;;;;;;45.58;24.33;;;;;;;;;;5105430;28;20241;-68
2023/03/04 04:09:09;;;;;;;37.97;24.17;;;;;;;;;;5105034;28;20204;-69
2023/03/04 04:11:36;;;;;;;43.92;24.38;;;;;;;;;;5105157;28;20257;-69
2023/03/04 04:14:02;;;;;;;43.50;24.08;;;;;;;;;;5105578;28;20568;-69
2023/03/04 04:16:28;;;;;;;45.47;25.02;;;;;;;;;;5105327;28;20196;-69
2023/03/04 04:18:55;;;;;;;42.95;25.13;;;;;;;;;;5105202;28;20427;-69
2023/03/04 04:21:21;;;;;;;45.03;25.95;;;;;;;;;;5105253;28;20731;-68
2023/03/04 04:23:47;;;;;;;40.70;24.35;;;;;;;;;;5104995;28;20253;-69
2023/03/04 04:26:15;;;;;;;45.67;25.58;;;;;;;;;;5105009;28;20196;-68
2023/03/04 04:28:41;;;;;;;40.20;23.02;;;;;;;;;;5105015;28;20219;-69
2023/03/04 04:31:08;;;;;;;45.72;25.33;;;;;;;;;;5104844;28;20195;-69
2023/03/04 04:33:34;;;;;;;48.17;26.02;;;;;;;;;;5104893;28;20192;-69
2023/03/04 04:36:02;;;;;;;44.22;24.65;;;;;;;;;;5104841;28;20548;-69
2023/03/04 04:38:28;;;;;;;45.28;24.70;;;;;;;;;;5104581;28;20242;-69
2023/03/04 04:40:56;;;;;;;41.92;24.00;;;;;;;;;;5104740;28;20203;-68
2023/03/04 04:43:23;;;;;;;45.58;24.35;;;;;;;;;;5104797;28;20220;-68
2023/03/04 04:45:50;;;;;;;42.35;25.13;;;;;;;;;;5104548;28;20196;-69
2023/03/04 04:48:16;;;;;;;43.60;24.48;;;;;;;;;;5104693;28;20203;-69
2023/03/04 04:50:42;;;;;;;43.80;24.27;;;;;;;;;;5104716;28;20196;-69
2023/03/04 04:53:10;;;;;;;44.22;23.52;;;;;;;;;;5104489;28;20229;-69
2023/03/04 04:55:36;;;;;;;43.53;23.20;;;;;;;;;;5104867;28;20243;-68
2023/03/04 04:58:05;;;;;;;43.08;23.02;;;;;;;;;;5104452;28;20233;-68
2023/03/04 05:00:32;;;;;;;40.30;23.02;;;;;;;;;;5104628;28;20202;-69
2023/03/04 05:02:58;;;;;;;41.08;22.17;;;;;;;;;;5104447;28;20261;-68
2023/03/04 05:05:25;;;;;;;43.88;24.58;;;;;;;;;;5103895;28;20196;-69
2023/03/04 05:07:51;;;;;;;45.95;25.25;;;;;;;;;;5103268;28;20213;-68
2023/03/04 05:10:17;;;;;;;39.80;23.25;;;;;;;;;;5104213;28;20204;-69
2023/03/04 05:12:44;;;;;;;43.40;23.27;;;;;;;;;;5104360;28;20199;-68
2023/03/04 05:15:10;;;;;;;44.55;23.17;;;;;;;;;;5104312;28;20242;-69
2023/03/04 05:17:38;;;;;;;45.10;24.15;;;;;;;;;;5103755;28;20199;-69
2023/03/04 05:20:06;;;;;;;46.75;24.45;;;;;;;;;;5104042;28;20233;-68
2023/03/04 05:22:32;;;;;;;42.50;24.45;;;;;;;;;;5104003;28;20225;-68
2023/03/04 05:24:58;;;;;;;42.88;24.38;;;;;;;;;;5104261;28;20241;-68
2023/03/04 05:27:24;;;;;;;43.95;24.38;;;;;;;;;;5103871;28;20220;-68
2023/03/04 05:29:51;;;;;;;41.42;23.65;;;;;;;;;;5104141;28;20196;-68
2023/03/04 05:32:17;;;;;;;44.15;24.17;;;;;;;;;;5103850;28;20202;-68
2023/03/04 05:34:45;;;;;;;42.25;23.92;;;;;;;;;;5103695;28;20202;-69
2023/03/04 05:37:11;;;;;;;41.60;24.33;;;;;;;;;;5104014;28;20241;-68
2023/03/04 05:39:37;;;;;;;44.25;23.85;;;;;;;;;;5103752;28;20195;-68
2023/03/04 05:42:03;;;;;;;43.97;24.13;;;;;;;;;;5103990;28;20383;-69
2023/03/04 05:44:30;;;;;;;44.45;24.52;;;;;;;;;;5103807;28;20219;-70
2023/03/04 05:46:56;;;;;;;42.38;23.60;;;;;;;;;;5103389;28;20267;-70
2023/03/04 05:49:22;;;;;;;38.95;23.75;;;;;;;;;;5103409;28;20196;-70
2023/03/04 05:51:50;;;;;;;39.97;22.73;;;;;;;;;;5103495;28;20241;-70
2023/03/04 05:54:16;;;;;;;40.20;22.75;;;;;;;;;;5103490;28;20195;-70
2023/03/04 05:56:42;;;;;;;35.38;22.65;;;;;;;;;;5103200;28;20265;-70
2023/03/04 05:59:08;;;;;;;36.63;21.15;;;;;;;;;;5103211;28;20200;-70
2023/03/04 06:01:35;;;;;;;38.75;22.70;;;;;;;;;;5103241;28;20233;-70
2023/03/04 06:04:01;;;;;;;38.10;21.10;;;;;;;;;;5103185;28;20219;-70
2023/03/04 06:06:27;;;;;;;38.50;21.35;;;;;;;;;;5103348;28;20200;-70
2023/03/04 06:08:55;;;;;;;35.78;21.67;;;;;;;;;;5103040;28;20530;-70
2023/03/04 06:11:21;;;;;;;41.90;22.33;;;;;;;;;;5103154;28;20495;-71
2023/03/04 06:13:47;;;;;;;37.10;21.52;;;;;;;;;;5103049;28;20499;-70
2023/03/04 06:16:14;;;;;;;34.65;22.02;;;;;;;;;;5103062;28;20202;-70
2023/03/04 06:18:40;;;;;;;36.53;21.48;;;;;;;;;;5102642;28;20196;-70
2023/03/04 06:21:06;;;;;;;37.58;21.73;;;;;;;;;;5103476;28;20200;-70
2023/03/04 06:23:32;;;;;;;42.70;22.85;;;;;;;;;;5103065;28;20215;-70
2023/03/04 06:26:00;;;;;;;40.00;21.95;;;;;;;;;;5102754;28;20227;-71
2023/03/04 06:28:27;;;;;;;39.55;21.40;;;;;;;;;;5102722;28;20230;-70
2023/03/04 06:30:53;;;;;;;42.28;23.00;;;;;;;;;;5102801;28;20196;-70
2023/03/04 06:33:20;;;;;;;37.08;21.20;;;;;;;;;;5102972;28;20544;-70
2023/03/04 06:35:46;;;;;;;38.45;22.15;;;;;;;;;;5102811;28;20196;-70
2023/03/04 06:38:12;;;;;;;39.45;21.73;;;;;;;;;;5102647;28;20237;-70
2023/03/04 06:40:38;;;;;;;39.15;22.40;;;;;;;;;;5102724;28;20199;-70
2023/03/04 06:43:06;;;;;;;37.88;22.90;;;;;;;;;;5102365;28;20218;-70
2023/03/04 06:45:32;;;;;;;37.10;23.35;;;;;;;;;;5102564;28;20195;-70
2023/03/04 06:47:58;;;;;;;44.85;22.90;;;;;;;;;;5102427;28;20202;-70
2023/03/04 06:50:25;;;;;;;41.33;22.92;;;;;;;;;;5102747;28;20511;-70
2023/03/04 06:52:51;;;;;;;39.47;22.42;;;;;;;;;;5102889;28;20278;-70
2023/03/04 06:55:17;;;;;;;39.55;22.13;;;;;;;;;;5102586;28;20257;-70
2023/03/04 06:57:43;;;;;;;39.28;22.75;;;;;;;;;;5102589;28;20298;-70
2023/03/04 07:00:12;;;;;;;41.42;22.50;;;;;;;;;;5102659;28;20233;-70
2023/03/04 07:02:38;;;;;;;42.58;23.05;;;;;;;;;;5102982;28;20241;-70
2023/03/04 07:05:05;;;;;;;46.20;25.50;;;;;;;;;;5102561;28;20211;-70
2023/03/04 07:07:31;;;;;;;46.08;23.92;;;;;;;;;;5102652;28;20439;-70
2023/03/04 07:09:57;;;;;;;41.53;24.10;;;;;;;;;;5102769;28;20227;-70
2023/03/04 07:12:24;;;;;;;47.75;24.95;;;;;;;;;;5102695;28;20507;-70
2023/03/04 07:14:50;;;;;;;43.47;25.40;;;;;;;;;;5102458;28;20237;-70
2023/03/04 07:17:17;;;;;;;48.65;26.65;;;;;;;;;;5102659;28;20237;-70
2023/03/04 07:19:44;;;;;;;46.40;26.75;;;;;;;;;;5102933;28;20195;-70
2023/03/04 07:22:10;;;;;;;54.90;28.23;;;;;;;;;;5102696;28;20518;-70
2023/03/04 07:24:37;;;;;;;47.90;26.77;;;;;;;;;;5102561;28;20245;-70
2023/03/04 07:27:03;;;;;;;45.78;26.85;;;;;;;;;;5102165;28;20196;-70
2023/03/04 07:29:29;;;;;;;44.65;26.90;;;;;;;;;;5103244;28;20249;-71
2023/03/04 07:31:55;;;;;;;46.53;26.67;;;;;;;;;;5106594;28;20196;-70
2023/03/04 07:34:23;;;;;;;50.63;26.55;;;;;;;;;;5106500;28;20195;-70
2023/03/04 07:36:49;;;;;;;45.78;25.15;;;;;;;;;;5106115;28;20245;-70
2023/03/04 07:39:15;;;;;;;45.83;25.85;;;;;;;;;;5106414;28;20429;-70
2023/03/04 07:41:42;;;;;;;44.03;25.70;;;;;;;;;;5106345;28;20394;-70
2023/03/04 07:44:08;;;;;;;41.78;23.38;;;;;;;;;;5106164;28;20234;-70
2023/03/04 07:46:35;;;;;;;45.50;23.30;;;;;;;;;;5106437;28;20200;-71
2023/03/04 07:49:01;;;;;;;40.60;23.33;;;;;;;;;;5105842;28;20196;-70
2023/03/04 07:51:29;;;;;;;43.92;22.73;;;;;;;;;;5105915;28;20195;-70
2023/03/04 07:53:56;;;;;;;47.42;22.83;;;;;;;;;;5106133;28;20192;-70
2023/03/04 07:56:23;;;;;;;40.78;22.10;;;;;;;;;;5105944;28;20196;-70
2023/03/04 07:58:52;;;;;;;44.47;23.27;;;;;;;;;;5105780;28;20204;-70
2023/03/04 08:01:19;;;;;;;40.47;22.40;;;;;;;;;;5105998;28;20208;-70
2023/03/04 08:03:45;;;;;;;43.15;22.85;;;;;;;;;;5105716;28;20215;-70
2023/03/04 08:06:13;;;;;;;44.67;23.38;;;;;;;;;;5105944;28;20419;-70
2023/03/04 08:08:41;;;;;;;40.28;22.65;;;;;;;;;;5105986;28;20215;-70
2023/03/04 08:11:08;;;;;;;43.25;22.25;;;;;;;;;;5105495;28;20241;-70
2023/03/04 08:13:35;;;;;;;41.15;21.85;;;;;;;;;;5105729;28;20199;-70
2023/03/04 08:16:02;;;;;;;40.40;21.42;;;;;;;;;;5105904;28;20503;-70
2023/03/04 08:18:28;;;;;;;41.65;20.52;;;;;;;;;;5105328;28;20196;-70
2023/03/04 08:20:54;;;;;;;39.80;21.20;;;;;;;;;;5105614;28;20309;-70
2023/03/04 08:23:20;;;;;;;46.47;23.27;;;;;;;;;;5105150;28;20226;-70
2023/03/04 08:25:48;;;;;;;42.63;22.13;;;;;;;;;;5105222;28;20549;-70
2023/03/04 08:28:15;;;;;;;44.90;22.35;;;;;;;;;;5105038;28;20449;-70
2023/03/04 08:30:41;;;;;;;44.30;22.35;;;;;;;;;;5105169;28;20203;-71
2023/03/04 08:33:08;;;;;;;37.30;20.65;;;;;;;;;;5105287;28;20540;-71
2023/03/04 08:35:39;;;;;;;42.65;22.75;;;;;;;;;;5105098;28;20416;-70
2023/03/04 08:38:05;;;;;;;45.65;23.13;;;;;;;;;;5104877;28;20195;-70
2023/03/04 08:40:32;;;;;;;43.95;22.98;;;;;;;;;;5104969;28;20241;-70
2023/03/04 08:42:59;;;;;;;40.85;21.73;;;;;;;;;;5105418;28;20557;-70
2023/03/04 08:45:26;;;;;;;43.92;22.00;;;;;;;;;;5105019;28;20219;-70
2023/03/04 08:47:52;;;;;;;41.15;22.58;;;;;;;;;;5104750;28;20195;-70
2023/03/04 08:50:18;;;;;;;42.65;22.45;;;;;;;;;;5104967;28;20557;-70
2023/03/04 08:52:45;;;;;;;40.55;21.17;;;;;;;;;;5104818;28;20211;-70
2023/03/04 08:55:11;;;;;;;40.90;22.65;;;;;;;;;;5104986;28;20200;-70
2023/03/04 08:57:37;;;;;;;37.95;21.20;;;;;;;;;;5104705;28;20421;-71
2023/03/04 09:00:05;;;;;;;45.03;22.85;;;;;;;;;;5104831;28;20196;-71
2023/03/04 09:02:32;;;;;;;44.45;23.70;;;;;;;;;;5104835;28;20508;-70
2023/03/04 09:04:58;;;;;;;41.83;21.67;;;;;;;;;;5104643;28;20573;-70
2023/03/04 09:07:24;;;;;;;44.70;22.77;;;;;;;;;;5104431;28;20229;-70
2023/03/04 09:09:50;;;;;;;40.88;22.58;;;;;;;;;;5104434;28;20210;-70
2023/03/04 09:12:17;;;;;;;38.58;21.00;;;;;;;;;;5104370;28;20200;-70
2023/03/04 09:14:43;;;;;;;41.17;21.27;;;;;;;;;;5104602;28;20192;-71
2023/03/04 09:17:10;;;;;;;41.95;22.17;;;;;;;;;;5104131;28;20218;-71
2023/03/04 09:19:37;;;;;;;43.13;21.92;;;;;;;;;;5104124;28;20237;-70
2023/03/04 09:22:03;;;;;;;39.25;21.35;;;;;;;;;;5104557;28;20515;-70
2023/03/04 09:24:29;;;;;;;48.30;23.30;;;;;;;;;;5104522;28;20220;-70
2023/03/04 09:26:56;;;;;;;48.50;23.90;;;;;;;;;;5104158;28;20202;-70
2023/03/04 09:29:22;;;;;;;47.17;24.05;;;;;;;;;;5104178;28;20221;-70
2023/03/04 09:31:48;;;;;;;44.88;23.63;;;;;;;;;;5104445;28;20488;-70
2023/03/04 09:34:16;;;;;;;39.25;21.42;;;;;;;;;;5104170;28;20499;-70
2023/03/04 09:36:42;;;;;;;40.22;20.90;;;;;;;;;;5103929;28;20263;-70
2023/03/04 09:39:08;;;;;;;40.60;20.75;;;;;;;;;;5103950;28;20499;-70
2023/03/04 09:41:37;;;;;;;43.35;23.00;;;;;;;;;;5104001;28;20195;-70
2023/03/04 09:44:04;;;;;;;42.85;22.75;;;;;;;;;;5103723;28;20215;-70
2023/03/04 09:46:33;;;;;;;39.67;21.67;;;;;;;;;;5103948;28;20204;-70
2023/03/04 09:49:00;;;;;;;40.08;20.77;;;;;;;;;;5103444;28;20499;-70
2023/03/04 09:51:36;;;;;;;43.00;24.25;;;;;;;;;;5103976;28;20423;-70
2023/03/04 09:54:06;;;;;;;41.00;20.50;;;;;;;;;;5103526;28;20237;-70
2023/03/04 09:56:34;;;;;;;37.90;22.02;;;;;;;;;;5103778;28;20196;-70
2023/03/04 09:59:03;;;;;;;36.08;20.92;;;;;;;;;;5103333;28;20503;-70
2023/03/04 10:01:33;;;;;;;38.72;20.77;;;;;;;;;;5103426;28;20195;-71
2023/03/04 10:04:02;;;;;;;38.60;21.27;;;;;;;;;;5103608;28;20258;-71
2023/03/04 10:06:30;;;;;;;38.22;20.42;;;;;;;;;;5103393;28;20218;-71
2023/03/04 10:08:59;;;;;;;38.13;21.55;;;;;;;;;;5103028;28;20203;-71
2023/03/04 10:11:27;;;;;;;41.38;22.67;;;;;;;;;;5103248;28;20589;-71
2023/03/04 10:13:56;;;;;;;42.22;22.05;;;;;;;;;;5103805;28;20392;-71
2023/03/04 10:16:24;;;;;;;43.33;23.77;;;;;;;;;;5102911;28;20202;-71
2023/03/04 10:18:53;;;;;;;38.42;22.63;;;;;;;;;;5103100;28;20196;-70
2023/03/04 10:21:21;;;;;;;38.58;22.20;;;;;;;;;;5103071;28;20233;-70
2023/03/04 10:23:48;;;;;;;37.78;22.30;;;;;;;;;;5103179;28;20200;-71
2023/03/04 10:26:16;;;;;;;40.78;22.30;;;;;;;;;;5103033;28;20420;-71
2023/03/04 10:28:43;;;;;;;41.25;24.10;;;;;;;;;;5102687;28;20223;-70
2023/03/04 10:31:15;;;;;;;40.70;22.73;;;;;;;;;;5102991;28;20208;-70
2023/03/04 10:33:41;;;;;;;39.15;22.13;;;;;;;;;;5103292;28;20425;-70
2023/03/04 10:36:17;;;;;;;36.28;21.35;;;;;;;;;;5102885;28;20237;-70
2023/03/04 10:38:44;;;;;;;37.13;21.00;;;;;;;;;;5102688;28;20266;-70
2023/03/04 10:41:12;;;;;;;34.95;21.30;;;;;;;;;;5102630;28;20200;-70
2023/03/04 10:43:41;;;;;;;32.97;20.00;;;;;;;;;;5102721;28;20241;-70
2023/03/04 10:46:10;;;;;;;31.85;20.08;;;;;;;;;;5102748;28;20559;-70
2023/03/04 10:48:37;;;;;;;31.80;20.17;;;;;;;;;;5102781;28;20200;-70
2023/03/04 10:51:12;;;;;;;32.85;19.13;;;;;;;;;;5090101;28;20231;-71
2023/03/04 10:53:40;;;;;;;35.50;20.55;;;;;;;;;;5096466;28;20215;-71
2023/03/04 10:56:29;;;;;;;34.42;21.02;;;;;;;;;;5096682;28;20292;-71
2023/03/04 10:59:17;;;;;;;36.80;21.88;;;;;;;;;;5097030;28;20211;-70
2023/03/04 11:01:43;;;;;;;35.78;21.27;;;;;;;;;;5096776;28;20214;-70
2023/03/04 11:04:16;;;;;;;37.63;22.23;;;;;;;;;;5097427;28;20215;-70
2023/03/04 11:06:43;;;;;;;36.47;22.05;;;;;;;;;;5101772;28;20225;-71
2023/03/04 11:09:18;;;;;;;32.17;21.92;;;;;;;;;;5101019;28;20210;-70
2023/03/04 11:11:44;;;;;;;35.78;22.73;;;;;;;;;;5101257;28;20362;-70
2023/03/04 11:14:14;;;;;;;37.90;22.38;;;;;;;;;;5101015;28;20208;-70
2023/03/04 11:16:40;;;;;;;33.20;21.65;;;;;;;;;;5098046;28;20204;-70
2023/03/04 11:19:10;;;;;;;34.97;22.35;;;;;;;;;;5092304;28;20601;-70
2023/03/04 11:21:39;;;;;;;35.50;21.85;;;;;;;;;;5090540;28;20245;-70
2023/03/04 11:24:09;;;;;;;37.75;21.00;;;;;;;;;;5091646;28;20220;-70
2023/03/04 11:26:38;;;;;;;35.78;21.92;;;;;;;;;;5090508;28;20208;-70
2023/03/04 11:29:07;;;;;;;36.50;21.98;;;;;;;;;;5089158;28;20223;-70
2023/03/04 11:31:38;;;;;;;41.55;22.42;;;;;;;;;;5089860;28;20215;-70
2023/03/04 11:34:07;;;;;;;36.25;23.67;;;;;;;;;;5089509;28;20568;-70
2023/03/04 11:36:35;;;;;;;35.55;23.50;;;;;;;;;;5089836;28;20246;-70
2023/03/04 11:39:03;;;;;;;40.15;24.75;;;;;;;;;;5089831;28;20271;-70
2023/03/04 11:41:31;;;;;;;39.75;24.92;;;;;;;;;;5088808;28;20212;-70
2023/03/04 11:43:59;;;;;;;39.72;24.95;;;;;;;;;;5089888;28;20196;-70
2023/03/04 11:46:49;;;;;;;40.65;24.77;;;;;;;;;;5090959;28;20246;-70
2023/03/04 11:49:33;;;;;;;33.88;23.45;;;;;;;;;;5079861;28;20205;-70
2023/03/04 11:52:03;;;;;;;37.65;25.13;;;;;;;;;;5084844;28;20460;-70
2023/03/04 11:54:32;;;;;;;43.03;26.33;;;;;;;;;;5091235;28;20207;-70
2023/03/04 11:57:00;;;;;;;43.58;26.75;;;;;;;;;;5088573;28;20216;-70
2023/03/04 11:59:49;;;;;;;40.45;25.67;;;;;;;;;;5089266;28;20479;-70
2023/03/04 12:02:18;;;;;;;40.30;25.60;;;;;;;;;;5090346;28;20245;-70
2023/03/04 12:05:05;;;;;;;42.30;26.17;;;;;;;;;;5090768;28;20228;-70
2023/03/04 12:07:43;;;;;;;49.72;26.98;;;;;;;;;;5089990;28;20215;-70
2023/03/04 12:10:14;;;;;;;44.72;27.35;;;;;;;;;;5085543;28;20499;-70
2023/03/04 12:12:53;;;;;;;44.60;26.50;;;;;;;;;;5082089;28;20212;-70
2023/03/04 12:15:21;;;;;;;44.00;27.73;;;;;;;;;;5079342;28;20504;-70
2023/03/04 12:18:05;;;;;;;46.67;27.48;;;;;;;;;;5079800;28;20208;-70
2023/03/04 12:20:44;;;;;;;42.85;27.13;;;;;;;;;;5079486;28;20442;-70
2023/03/04 12:23:17;;;;;;;45.53;28.00;;;;;;;;;;5079658;28;20538;-70
2023/03/04 12:25:47;;;;;;;43.08;27.00;;;;;;;;;;5079596;28;20217;-70
2023/03/04 12:28:26;;;;;;;46.80;28.60;;;;;;;;;;5079374;28;20224;-70
2023/03/04 12:30:59;;;;;;;45.83;28.25;;;;;;;;;;5079490;28;20313;-70
2023/03/04 12:33:32;;;;;;;44.55;27.85;;;;;;;;;;5079183;28;20215;-70
2023/03/04 12:36:02;;;;;;;48.65;28.85;;;;;;;;;;5079577;28;20638;-70
2023/03/04 12:38:43;;;;;;;50.22;29.92;;;;;;;;;;5079594;28;20204;-70
2023/03/04 12:41:19;;;;;;;95.00;29.17;;;;;;;;;;5076625;28;20208;-62
2023/03/04 12:43:51;;;;;;;60.28;28.05;;;;;;;;;;5078523;28;20212;-62
2023/03/04 12:46:21;;;;;;;46.88;30.02;;;;;;;;;;5091134;28;20228;-62
2023/03/04 12:48:53;;;;;;;50.65;30.25;;;;;;;;;;5098850;28;20211;-62
2023/03/04 12:51:25;;;;;;;45.72;28.15;;;;;;;;;;5098500;28;20250;-62
2023/03/04 12:53:56;;;;;;;45.40;28.58;;;;;;;;;;5098756;28;20276;-62
2023/03/04 12:56:24;;;;;;;50.75;30.42;;;;;;;;;;5098576;28;20573;-62
2023/03/04 12:58:51;;;;;;;47.50;31.00;;;;;;;;;;5098681;28;20559;-62
2023/03/04 13:01:21;;;;;;;48.17;30.15;;;;;;;;;;5098698;28;20284;-62
2023/03/04 13:03:53;;;;;;;49.88;31.25;;;;;;;;;;5098696;28;20505;-62
2023/03/04 13:06:26;;;;;;;51.10;31.98;;;;;;;;;;5098767;28;20451;-62
2023/03/04 13:08:56;;;;;;;54.05;32.58;;;;;;;;;;5098644;28;20216;-62
2023/03/04 13:11:32;;;;;;;52.65;32.22;;;;;;;;;;5098340;28;20277;-62
2023/03/04 13:14:02;;;;;;;54.58;32.17;;;;;;;;;;5098663;28;20211;-65
2023/03/04 13:16:31;;;;;;;52.35;32.70;;;;;;;;;;5098597;28;20511;-61
2023/03/04 13:18:57;;;;;;;49.97;31.17;;;;;;;;;;5098483;28;20204;-61
2023/03/04 13:21:26;;;;;;;55.05;33.10;;;;;;;;;;5098447;28;20212;-62
2023/03/04 13:23:53;;;;;;;52.70;32.42;;;;;;;;;;5098686;28;20265;-61
2023/03/04 13:26:20;;;;;;;54.17;32.45;;;;;;;;;;5098048;28;20265;-60
2023/03/04 13:28:51;;;;;;;58.60;33.40;;;;;;;;;;5097348;28;20238;-61
2023/03/04 13:31:20;;;;;;;52.83;33.60;;;;;;;;;;5097955;28;20203;-61
2023/03/04 13:33:52;;;;;;;58.45;35.28;;;;;;;;;;5097852;28;20249;-61
2023/03/04 13:36:30;;;;;;;59.67;33.42;;;;;;;;;;5098054;28;20212;-61
2023/03/04 13:39:00;;;;;;;57.00;32.85;;;;;;;;;;5093652;28;20250;-60
2023/03/04 13:41:30;;;;;;;53.25;33.78;;;;;;;;;;5086838;28;20208;-59
2023/03/04 13:43:57;;;;;;;54.80;33.40;;;;;;;;;;5086401;28;20208;-60
2023/03/04 13:46:39;;;;;;;54.58;31.98;;;;;;;;;;5090452;28;20235;-60
2023/03/04 13:49:07;;;;;;;55.42;33.38;;;;;;;;;;5087436;28;20204;-61
2023/03/04 13:51:39;;;;;;;56.72;32.50;;;;;;;;;;5086206;28;20228;-60
2023/03/04 13:54:13;;;;;;;57.20;32.88;;;;;;;;;;5086835;28;20204;-61
2023/03/04 13:56:39;;;;;;;58.90;34.00;;;;;;;;;;5086218;28;20200;-61
2023/03/04 13:59:20;;;;;;;55.33;32.47;;;;;;;;;;5087134;28;20220;-61
2023/03/04 14:01:51;;;;;;;54.28;32.20;;;;;;;;;;5082761;28;20258;-60
2023/03/04 14:04:18;;;;;;;58.03;32.50;;;;;;;;;;5077578;28;20272;-61
2023/03/04 14:06:47;;;;;;;53.80;30.98;;;;;;;;;;5077404;28;20226;-60
2023/03/04 14:09:14;;;;;;;54.63;30.58;;;;;;;;;;5079982;28;20228;-60
2023/03/04 14:11:41;;;;;;;52.80;29.00;;;;;;;;;;5076889;28;20216;-60
2023/03/04 14:14:11;;;;;;;46.05;27.08;;;;;;;;;;5076916;28;20503;-61
2023/03/04 14:16:39;;;;;;;47.35;27.25;;;;;;;;;;5077075;28;20227;-60
2023/03/04 14:19:06;;;;;;;39.58;25.23;;;;;;;;;;5076653;28;20208;-61
2023/03/04 14:21:32;;;;;;;48.53;26.30;;;;;;;;;;5076482;28;20208;-60